Genesee, ID (83832)

5:53 AM PDT on September 23, 2014 (GMT -0700)
ITD Shirrod Hill ID US | Change Station
CLOSE
Current Station
Personal Weather Station
Location: Genesee, ID
Elevation: 2850 ft
Nearby Weather Stations
Active Advisory: Air Quality Alert

Elev 2850 ft 46.51 °N, 116.95 °W | Updated 38 minutes ago

Mostly Cloudy
Mostly Cloudy
57 °F
Feels Like 57 °F
N
5
Wind Variable Wind from North
Gusts 7.0 mph

Today
High -- | Low -- °F
--% Chance of Precip.
Yesterday
High -- | Low -- °F
Precip. -- in
6:36 AM 6:43 PM
Waning Crescent, 1% visible
Pressure 29.91 in
Visibility 10.0 miles
Clouds Clear
Dew Point 51 °F
Humidity 80%
Rainfall 0.00 in
Snow Depth 0 in , 0 in , 0 in
UV 0 out of 12
Pollen 6.70 out of 12
PM2.5 Good
Flu Activity Not available.
METAR KLWS 231156Z AUTO 10006KT 10SM CLR 18/14 A2993 RMK AO2 RAE17 SLP127 P0000 60004 70004 T01830144 10239 20172 58006

More Conditions Fewer Conditions

Pressure 29.91 in
Visibility 10.0 miles
Clouds Clear
Dew Point 51 °F
Humidity 80%
Rainfall 0.00 in
Snow Depth 0 in , 0 in , 0 in
UV 0 out of 12
Pollen 6.70 out of 12
PM2.5 Good
Flu Activity Not available.
METAR KLWS 231156Z AUTO 10006KT 10SM CLR 18/14 A2993 RMK AO2 RAE17 SLP127 P0000 60004 70004 T01830144 10239 20172 58006

More Conditions Fewer Conditions

10-Day Weather Forecast

Almanac

Astronomy

Sep. 23, 2014 Rise Set
Actual Time 6:36 AM PDT 6:43 PM PDT
Civil Twilight 6:05 AM PDT 7:13 PM PDT
Nautical Twilight 5:30 AM PDT 7:48 PM PDT
Astronomical Twilight 4:54 AM PDT 8:24 PM PDT
Moon 6:04 AM PDT 6:23 PM PDT
Length of Visible Light 13h 07m
Length of Day
12h 07m
Tomorrow will be 3m 18s shorter.
Waning Crescent, 1% of the Moon is Illuminated
Today
Waning Crescent
Sep 24
New
Oct 1
First Quarter
Oct 8
Full
Oct 15
Last Quarter

Today's Extremes

State Highs State Lows

Community

WunderPhotos

Upload Photos

1,755,662 photos uploaded!

WunderBlogs® & News

Nearby

Air Quality

  Air Quality AQ Index Pollutant
Yesterday Moderate
PM2.5
Current Good
PM2.5
Tuesday Moderate
PM2.5
Wednesday Moderate
PM2.5

Snow Depth

Station Depth Elevation
Lost Lake 0 in 6110 ft
Cozy Cove 0 in 5380 ft
Atlanta Summit 0 in 7580 ft
Van Wyck 0 in 4920 ft
Bear Mountain 0 in 5400 ft

Earthquake Activity

City Distance Mag. Time & Date
No recent earthquake activity has been reported nearby.
Minimum magnitude displayed is 2.5.

Coastal Water Temperatures

Place Temperature
No Stations Reporting

Nearby Weather Stations